Terminal Aerodrome Forecast
Issued by NWS

Current Version | Previous Version | Graphics & Text | Print | Product List | Glossary On
Versions: 1 2 3 4 5 6 7 8 9 10 11 12 13 14 15 16 17
991
FTUS41 KILN 101128
TAFLCK
TAF
KLCK 101128Z 1012/1112 26012G22KT 3SM -SHSN OVC025
      TEMPO 1012/1016 1SM -SHSN OVC015
     FM101700 27016G22KT 2SM -SHSN OVC025
     FM110000 28012KT 5SM -SHSN OVC035
     FM110400 28008KT P6SM BKN035=

USA.gov is the U.S. government's official web portal to all federal, state and local government web resources and services.